createdAt,value
2018-06-15T00:00:12.633Z,16.50
2018-06-15T00:02:40.753Z,16.50
2018-06-15T00:05:08.876Z,16.50
2018-06-15T00:07:39.402Z,16.50
2018-06-15T00:10:07.508Z,16.60
2018-06-15T00:12:35.740Z,16.60
2018-06-15T00:15:05.020Z,16.70
2018-06-15T00:17:33.188Z,16.80
2018-06-15T00:20:01.950Z,16.70
2018-06-15T00:22:30.094Z,16.70
2018-06-15T00:24:58.272Z,16.60
2018-06-15T00:27:26.392Z,16.50
2018-06-15T00:29:55.073Z,16.60
2018-06-15T00:32:23.460Z,16.50
2018-06-15T00:34:51.597Z,16.40
2018-06-15T00:37:19.764Z,16.40
2018-06-15T00:39:47.929Z,16.40
2018-06-15T00:42:16.078Z,16.40
2018-06-15T00:44:44.212Z,16.40
2018-06-15T00:47:12.351Z,16.40
2018-06-15T00:49:40.649Z,16.20
2018-06-15T00:52:08.792Z,16.30
2018-06-15T00:54:36.953Z,16.20
2018-06-15T00:57:16.407Z,16.20
2018-06-15T00:59:44.525Z,16.20
2018-06-15T01:02:12.664Z,16.20
2018-06-15T01:04:40.845Z,16.30
2018-06-15T01:07:08.980Z,16.40
2018-06-15T01:09:37.137Z,16.30
2018-06-15T01:12:06.317Z,16.30
2018-06-15T01:14:34.644Z,16.40
2018-06-15T01:17:02.884Z,16.50
2018-06-15T01:19:30.992Z,16.50
2018-06-15T01:22:09.481Z,16.40
2018-06-15T01:24:37.665Z,16.50
2018-06-15T01:27:05.818Z,16.50
2018-06-15T01:29:33.929Z,16.40
2018-06-15T01:32:02.629Z,16.50
2018-06-15T01:34:30.766Z,16.40
2018-06-15T01:36:58.897Z,16.30
2018-06-15T01:39:27.047Z,16.10
2018-06-15T01:41:55.164Z,16.00
2018-06-15T01:44:23.293Z,15.90
2018-06-15T01:46:51.453Z,15.90
2018-06-15T01:49:19.581Z,15.80
2018-06-15T01:51:47.733Z,15.80
2018-06-15T01:54:16.350Z,15.80
2018-06-15T01:56:44.496Z,15.80
2018-06-15T01:59:12.634Z,15.90
2018-06-15T02:01:40.821Z,15.90
2018-06-15T02:04:09.056Z,15.90
2018-06-15T02:06:37.197Z,15.80
2018-06-15T02:09:07.136Z,15.80
2018-06-15T02:11:35.264Z,15.80
2018-06-15T02:14:03.486Z,15.80
2018-06-15T02:16:32.401Z,15.90
2018-06-15T02:19:00.563Z,16.00
2018-06-15T02:21:28.745Z,16.10
2018-06-15T02:23:57.498Z,16.20
2018-06-15T02:26:25.650Z,16.20
2018-06-15T02:28:53.848Z,16.20
2018-06-15T02:31:22.011Z,16.30
2018-06-15T02:33:50.142Z,16.30
2018-06-15T02:36:18.303Z,16.30
2018-06-15T02:38:46.781Z,16.30
2018-06-15T02:41:14.929Z,16.20
2018-06-15T02:43:43.087Z,16.30
2018-06-15T02:46:11.240Z,16.30
2018-06-15T02:48:39.386Z,16.30
2018-06-15T02:51:07.541Z,16.30
2018-06-15T02:53:35.745Z,16.30
2018-06-15T02:56:03.926Z,16.20
2018-06-15T02:58:32.070Z,16.20
2018-06-15T03:01:00.554Z,16.00
2018-06-15T03:03:28.725Z,16.10
2018-06-15T03:05:56.879Z,16.10
2018-06-15T03:08:25.044Z,16.00
2018-06-15T03:10:53.200Z,16.00
2018-06-15T03:13:21.370Z,15.90
2018-06-15T03:15:49.591Z,16.00
2018-06-15T03:18:18.430Z,15.90
2018-06-15T03:20:46.636Z,15.80
2018-06-15T03:23:15.236Z,15.80
2018-06-15T03:25:43.943Z,15.90
2018-06-15T03:28:12.614Z,15.90
2018-06-15T03:30:40.795Z,15.90
2018-06-15T03:33:08.937Z,16.00
2018-06-15T03:35:37.094Z,15.90
2018-06-15T03:38:05.282Z,15.90
2018-06-15T03:40:33.434Z,15.90
2018-06-15T03:43:01.582Z,16.00
2018-06-15T03:45:30.686Z,16.00
2018-06-15T03:47:58.829Z,16.00
2018-06-15T03:50:26.983Z,16.00
2018-06-15T03:52:55.406Z,16.00
2018-06-15T03:55:23.571Z,16.10
2018-06-15T03:57:51.737Z,16.20
2018-06-15T04:00:19.894Z,16.30
2018-06-15T04:02:48.050Z,16.30
2018-06-15T04:05:16.198Z,16.40
2018-06-15T04:07:44.956Z,16.40
2018-06-15T04:10:13.034Z,16.40
2018-06-15T04:12:41.179Z,16.40
2018-06-15T04:15:09.375Z,16.40
2018-06-15T04:17:37.527Z,16.50
2018-06-15T04:20:05.694Z,16.50
2018-06-15T04:22:33.854Z,16.60
2018-06-15T04:25:08.395Z,16.60
2018-06-15T04:27:36.957Z,16.60
2018-06-15T04:30:05.648Z,16.60
2018-06-15T04:32:33.811Z,16.60
2018-06-15T04:35:01.978Z,16.50
2018-06-15T04:37:30.145Z,16.70
2018-06-15T04:39:58.335Z,16.70
2018-06-15T04:42:26.504Z,16.90
2018-06-15T04:44:54.657Z,16.90
2018-06-15T04:47:22.818Z,16.90
2018-06-15T04:49:51.031Z,16.90
2018-06-15T04:52:19.658Z,17.00
2018-06-15T04:54:47.918Z,17.10
2018-06-15T04:57:16.085Z,17.20
2018-06-15T04:59:44.239Z,17.10
2018-06-15T05:02:12.390Z,17.10
2018-06-15T05:04:40.550Z,17.10
2018-06-15T05:07:09.009Z,17.10
2018-06-15T05:09:37.161Z,17.20
2018-06-15T05:12:06.132Z,17.20
2018-06-15T05:14:34.279Z,17.30
2018-06-15T05:17:02.465Z,17.20
2018-06-15T05:19:30.642Z,17.30
2018-06-15T05:21:58.866Z,17.30
2018-06-15T05:24:27.037Z,17.30
2018-06-15T05:26:55.222Z,17.30
2018-06-15T05:29:24.000Z,17.30
2018-06-15T05:31:52.154Z,17.20
2018-06-15T05:34:20.684Z,17.40
2018-06-15T05:36:48.830Z,17.40
2018-06-15T05:39:17.007Z,17.40
2018-06-15T05:41:45.174Z,17.60
2018-06-15T05:44:13.345Z,17.80
2018-06-15T05:46:41.515Z,17.80
2018-06-15T05:49:09.686Z,17.70
2018-06-15T05:51:37.915Z,17.70
2018-06-15T05:54:06.046Z,17.60
2018-06-15T05:56:34.626Z,17.70
2018-06-15T05:59:03.274Z,18.00
2018-06-15T06:01:31.422Z,17.60
2018-06-15T06:03:59.666Z,17.70
2018-06-15T06:06:27.767Z,18.00
2018-06-15T06:08:55.933Z,18.20
2018-06-15T06:11:24.090Z,18.20
2018-06-15T06:13:52.244Z,18.00
2018-06-15T06:16:20.394Z,17.90
2018-06-15T06:18:48.602Z,17.90
